Terminal Aerodrome Forecast
Issued by NWS Paducah, KY

Home | Current Version | Previous Version | Text Only | Print | Product List | Glossary On
Versions: 1 2 3 4 5 6 7 8 9 10 11 12 13 14 15 16 17 18
206
FTUS43 KPAH 232320
TAFEVV
TAF
KEVV 232320Z 2400/2424 00000KT P6SM SKC
     FM240800 00000KT 3SM BR SKC
     FM241300 19005KT P6SM FEW035 SCT250=

USA.gov is the U.S. government's official web portal to all federal, state and local government web resources and services.